Time;durP1;ratioP1;P1;durP2;ratioP2;P2;SDS_P1;SDS_P2;PMS_P1;PMS_P2;Temp;Humidity;BMP_temperature;BMP_pressure;BME280_temperature;BME280_humidity;BME280_pressure;Samples;Min_cycle;Max_cycle;Signal;HPM_P1;HPM_P2
2022/12/13 00:01:23;;;;;;;85.57;28.88;;;-6.80;77.80;;;;;;4975388;28;20216;-59
2022/12/13 00:03:51;;;;;;;66.38;27.52;;;-6.80;77.90;;;;;;4980184;28;20057;-60
2022/12/13 00:06:17;;;;;;;57.42;25.45;;;-6.80;78.00;;;;;;4987361;28;20038;-60
2022/12/13 00:08:43;;;;;;;61.45;25.90;;;-6.80;78.10;;;;;;4986165;28;20039;-60
2022/12/13 00:11:11;;;;;;;68.43;27.20;;;-6.70;78.30;;;;;;4987487;28;20038;-61
2022/12/13 00:13:37;;;;;;;131.93;26.02;;;-6.70;78.50;;;;;;4986411;28;20184;-60
2022/12/13 00:16:06;;;;;;;47.70;22.15;;;-6.70;78.50;;;;;;4986802;28;20058;-61
2022/12/13 00:18:32;;;;;;;54.83;21.80;;;-6.70;78.40;;;;;;4982858;28;21021;-62
2022/12/13 00:20:57;;;;;;;44.50;20.42;;;-6.70;78.00;;;;;;4975284;28;20118;-61
2022/12/13 00:23:23;;;;;;;44.28;21.15;;;-6.70;77.30;;;;;;4975301;28;20460;-62
2022/12/13 00:25:49;;;;;;;34.63;17.48;;;-6.80;77.10;;;;;;4974637;28;20534;-60
2022/12/13 00:28:16;;;;;;;41.60;19.58;;;-6.80;77.40;;;;;;4975436;28;20047;-61
2022/12/13 00:30:41;;;;;;;40.45;19.60;;;-6.90;77.80;;;;;;4989442;28;20038;-64
2022/12/13 00:33:08;;;;;;;39.15;19.02;;;-6.90;78.00;;;;;;4975370;28;20058;-63
2022/12/13 00:35:39;;;;;;;42.25;19.23;;;-6.90;78.20;;;;;;4974013;28;20322;-62
2022/12/13 00:38:05;;;;;;;38.78;18.73;;;-6.80;78.30;;;;;;4986883;28;20537;-59
2022/12/13 00:40:31;;;;;;;45.42;20.77;;;-6.80;78.40;;;;;;4986112;28;20038;-60
2022/12/13 00:42:56;;;;;;;42.63;19.50;;;-6.80;78.40;;;;;;4986394;28;20034;-62
2022/12/13 00:45:22;;;;;;;60.22;22.50;;;-6.80;78.30;;;;;;4985438;28;20041;-60
2022/12/13 00:47:47;;;;;;;57.70;22.27;;;-6.70;78.50;;;;;;4978654;28;20058;-62
2022/12/13 00:50:13;;;;;;;41.70;19.17;;;-6.70;78.20;;;;;;4975010;28;20046;-58
2022/12/13 00:52:38;;;;;;;46.55;21.65;;;-6.70;78.00;;;;;;4972039;28;20724;-61
2022/12/13 00:55:04;;;;;;;43.08;20.33;;;-6.80;77.80;;;;;;4979929;28;20038;-60
2022/12/13 00:57:30;;;;;;;44.95;20.83;;;-6.80;77.80;;;;;;4975557;28;20450;-58
2022/12/13 00:59:56;;;;;;;43.00;20.52;;;-6.80;77.60;;;;;;4974497;28;20186;-61
2022/12/13 01:02:21;;;;;;;43.70;20.30;;;-6.80;77.40;;;;;;4973621;28;20612;-61
2022/12/13 01:04:50;;;;;;;37.58;18.42;;;-6.90;77.30;;;;;;4975890;28;20569;-60
2022/12/13 01:07:16;;;;;;;47.75;20.30;;;-7.00;78.30;;;;;;4978444;28;20046;-61
2022/12/13 01:09:42;;;;;;;43.47;20.00;;;-7.00;77.70;;;;;;4982436;28;20034;-59
2022/12/13 01:12:10;;;;;;;64.85;21.00;;;-7.00;78.00;;;;;;4972235;28;20034;-59
2022/12/13 01:14:37;;;;;;;61.67;20.45;;;-7.00;78.10;;;;;;4974314;28;20050;-61
2022/12/13 01:17:02;;;;;;;40.00;19.42;;;-7.10;78.20;;;;;;4982575;28;20342;-61
2022/12/13 01:19:28;;;;;;;42.67;19.35;;;-7.00;78.40;;;;;;5014311;28;20084;-60
2022/12/13 01:21:59;;;;;;;39.05;17.27;;;-7.00;78.50;;;;;;4982954;28;20035;-60
2022/12/13 01:24:24;;;;;;;39.63;18.75;;;-7.00;78.60;;;;;;4979056;28;20050;-58
2022/12/13 01:26:51;;;;;;;62.75;19.02;;;-7.00;78.70;;;;;;4978599;28;20034;-60
2022/12/13 01:29:18;;;;;;;53.47;18.77;;;-7.00;78.80;;;;;;4979154;28;20052;-59
2022/12/13 01:31:44;;;;;;;37.90;18.65;;;-6.90;79.00;;;;;;4983011;28;20045;-60
2022/12/13 01:34:15;;;;;;;40.70;18.75;;;-6.90;79.00;;;;;;4982307;28;20046;-61
2022/12/13 01:36:42;;;;;;;33.80;17.48;;;-6.90;79.00;;;;;;4976615;28;20477;-60
2022/12/13 01:39:10;;;;;;;36.97;17.25;;;-6.90;79.10;;;;;;4978783;28;20037;-62
2022/12/13 01:41:36;;;;;;;39.45;18.00;;;-6.90;79.10;;;;;;4980709;28;20030;-60
2022/12/13 01:44:06;;;;;;;39.50;17.42;;;-6.90;79.20;;;;;;4977534;28;20042;-60
2022/12/13 01:46:33;;;;;;;40.00;17.83;;;-6.80;79.30;;;;;;4979349;28;20041;-58
2022/12/13 01:49:02;;;;;;;36.03;18.17;;;-6.80;79.30;;;;;;4977529;28;20066;-60
2022/12/13 01:51:42;;;;;;;35.60;17.25;;;-6.80;79.30;;;;;;4977584;28;20038;-60
2022/12/13 01:54:11;;;;;;;39.90;18.35;;;-6.70;79.50;;;;;;4982217;28;20034;-61
2022/12/13 01:56:46;;;;;;;35.95;17.50;;;-6.70;79.40;;;;;;4976348;28;20049;-60
2022/12/13 01:59:14;;;;;;;37.70;17.58;;;-6.70;79.40;;;;;;4981783;28;20029;-59
2022/12/13 02:01:40;;;;;;;32.35;17.48;;;-6.70;79.50;;;;;;4976422;28;20418;-60
2022/12/13 02:04:06;;;;;;;36.05;17.92;;;-6.70;79.50;;;;;;4983337;28;20396;-62
2022/12/13 02:06:42;;;;;;;36.38;17.95;;;-6.70;79.50;;;;;;4981561;28;20832;-61
2022/12/13 02:09:09;;;;;;;36.50;18.80;;;-6.60;79.50;;;;;;4983742;28;20114;-61
2022/12/13 02:11:39;;;;;;;37.95;18.00;;;-6.60;79.30;;;;;;4973673;28;20407;-60
2022/12/13 02:14:04;;;;;;;42.75;20.48;;;-6.60;79.20;;;;;;4984163;28;20502;-61
2022/12/13 02:16:52;;;;;;;42.22;19.83;;;-6.60;79.00;;;;;;4979218;28;20046;-62
2022/12/13 02:19:38;;;;;;;38.03;19.17;;;-6.60;78.60;;;;;;4984702;28;20117;-61
2022/12/13 02:22:41;;;;;;;38.75;18.15;;;-6.60;78.30;;;;;;4979766;28;20031;-61
2022/12/13 02:25:12;;;;;;;35.88;17.67;;;-6.70;77.80;;;;;;4979082;28;20037;-60
2022/12/13 02:28:04;;;;;;;37.60;19.25;;;-6.70;77.80;;;;;;4979192;28;20045;-60
2022/12/13 02:30:43;;;;;;;37.58;17.15;;;-6.70;77.90;;;;;;4977526;28;20043;-57
2022/12/13 02:33:17;;;;;;;32.72;16.33;;;-6.80;78.00;;;;;;4976018;28;20035;-60
2022/12/13 02:36:05;;;;;;;32.72;16.08;;;-6.80;78.10;;;;;;4983329;28;20597;-60
2022/12/13 02:38:45;;;;;;;33.78;16.70;;;-6.80;78.20;;;;;;4985327;28;20707;-60
2022/12/13 02:41:46;;;;;;;36.03;16.45;;;-6.80;78.30;;;;;;4988886;28;20026;-61
2022/12/13 02:44:40;;;;;;;32.50;16.48;;;-6.80;78.40;;;;;;4989242;28;20037;-60
2022/12/13 02:47:07;;;;;;;30.75;15.85;;;-6.80;78.50;;;;;;4983577;28;20069;-59
2022/12/13 02:49:37;;;;;;;29.90;16.00;;;-6.80;78.50;;;;;;4982408;28;20552;-60
2022/12/13 02:52:06;;;;;;;32.63;16.90;;;-6.80;78.30;;;;;;4974804;28;20125;-62
2022/12/13 02:54:32;;;;;;;32.38;15.52;;;-6.70;78.40;;;;;;5007369;28;20069;-59
2022/12/13 02:56:59;;;;;;;31.35;15.82;;;-6.70;78.30;;;;;;4976623;28;20133;-61
2022/12/13 02:59:32;;;;;;;30.95;15.75;;;-6.70;78.10;;;;;;4980863;28;20510;-60
2022/12/13 03:02:23;;;;;;;32.30;16.10;;;-6.70;78.00;;;;;;4974541;28;21088;-59
2022/12/13 03:08:19;;;;;;;29.65;14.98;;;-6.70;78.20;;;;;;4985163;28;20037;-60
2022/12/13 03:10:57;;;;;;;34.75;16.17;;;-6.80;78.30;;;;;;4982550;28;20565;-60
2022/12/13 03:13:35;;;;;;;29.75;15.52;;;-6.70;78.40;;;;;;4985135;28;20039;-60
2022/12/13 03:16:12;;;;;;;34.45;15.65;;;-6.70;78.50;;;;;;4985995;28;20433;-62
2022/12/13 03:18:41;;;;;;;32.65;15.13;;;-6.70;78.60;;;;;;4986303;28;20029;-59
2022/12/13 03:21:08;;;;;;;30.40;15.98;;;-6.60;78.60;;;;;;4986737;28;20092;-60
2022/12/13 03:23:36;;;;;;;30.73;15.88;;;-6.60;78.60;;;;;;4985098;28;20036;-61
2022/12/13 03:26:05;;;;;;;29.42;15.50;;;-6.60;78.50;;;;;;4985776;28;20256;-60
2022/12/13 03:28:31;;;;;;;33.22;16.73;;;-6.60;78.50;;;;;;4984689;28;20069;-61
2022/12/13 03:30:56;;;;;;;30.52;14.93;;;-6.60;78.40;;;;;;4985500;28;20454;-60
2022/12/13 03:33:22;;;;;;;29.95;14.82;;;-6.60;78.50;;;;;;4985620;28;20607;-60
2022/12/13 03:35:48;;;;;;;29.02;14.90;;;-6.60;78.50;;;;;;4985350;28;20405;-61
2022/12/13 03:38:16;;;;;;;31.55;15.30;;;-6.60;78.50;;;;;;4986114;28;20076;-61
2022/12/13 03:40:41;;;;;;;29.20;14.60;;;-6.60;78.50;;;;;;4986730;28;20590;-60
2022/12/13 03:43:07;;;;;;;31.25;15.65;;;-6.60;78.40;;;;;;4988267;28;20184;-61
2022/12/13 03:45:33;;;;;;;28.73;15.68;;;-6.60;78.40;;;;;;4988352;28;20030;-60
2022/12/13 03:47:58;;;;;;;29.60;15.40;;;-6.60;78.50;;;;;;4987486;28;20034;-60
2022/12/13 03:50:24;;;;;;;28.50;15.10;;;-6.60;78.40;;;;;;4985635;28;20042;-61
2022/12/13 03:52:50;;;;;;;31.83;15.80;;;-6.60;78.30;;;;;;4987634;28;20038;-60
2022/12/13 03:55:17;;;;;;;33.53;15.45;;;-6.60;78.30;;;;;;4986873;28;20065;-60
2022/12/13 03:57:42;;;;;;;29.23;15.20;;;-6.60;78.40;;;;;;4988397;28;20491;-60
2022/12/13 04:00:09;;;;;;;30.02;14.75;;;-6.60;78.30;;;;;;4986944;28;20049;-61
2022/12/13 04:02:34;;;;;;;30.63;15.38;;;-6.60;78.50;;;;;;4984429;28;20030;-60
2022/12/13 04:05:00;;;;;;;33.03;15.70;;;-6.60;78.50;;;;;;4984812;28;20045;-61
2022/12/13 04:07:25;;;;;;;33.65;16.73;;;-6.60;78.60;;;;;;4983383;28;20042;-61
2022/12/13 04:09:51;;;;;;;33.47;16.60;;;-6.60;78.60;;;;;;4985664;28;20042;-61
2022/12/13 04:15:01;;;;;;;38.65;17.77;;;-6.60;78.70;;;;;;4983393;28;20057;-60
2022/12/13 04:17:26;;;;;;;38.00;18.63;;;-6.60;78.70;;;;;;4985465;28;20491;-61
2022/12/13 04:19:52;;;;;;;39.17;17.95;;;-6.60;78.70;;;;;;4984956;28;20422;-60
2022/12/13 04:22:17;;;;;;;32.00;17.13;;;-6.60;78.80;;;;;;4983308;28;20454;-61
2022/12/13 04:24:43;;;;;;;35.00;17.60;;;-6.60;78.80;;;;;;4982491;28;20030;-62
2022/12/13 04:27:08;;;;;;;34.15;17.00;;;-6.60;78.90;;;;;;4980540;28;20062;-63
2022/12/13 04:29:34;;;;;;;34.22;16.00;;;-6.60;78.80;;;;;;4983712;28;20030;-62
2022/12/13 04:31:59;;;;;;;32.40;16.38;;;-6.50;78.90;;;;;;4987051;28;20275;-61
2022/12/13 04:34:25;;;;;;;34.03;16.58;;;-6.50;79.00;;;;;;4986149;28;20469;-63
2022/12/13 04:36:50;;;;;;;35.33;17.67;;;-6.50;78.90;;;;;;4986225;28;20031;-61
2022/12/13 04:39:16;;;;;;;34.95;17.23;;;-6.60;78.80;;;;;;4985482;28;20463;-60
2022/12/13 04:41:42;;;;;;;36.88;17.73;;;-6.60;78.80;;;;;;4985183;28;20564;-61
2022/12/13 04:44:09;;;;;;;34.95;17.38;;;-6.60;78.80;;;;;;4987232;28;20042;-61
2022/12/13 04:46:36;;;;;;;36.47;18.05;;;-6.60;78.80;;;;;;4982802;28;20125;-60
2022/12/13 04:49:02;;;;;;;38.50;18.50;;;-6.60;78.90;;;;;;4983999;28;20030;-58
2022/12/13 04:51:28;;;;;;;39.78;18.70;;;-6.60;78.90;;;;;;4982425;28;20038;-59
2022/12/13 04:53:53;;;;;;;40.25;18.85;;;-6.60;79.00;;;;;;4983003;28;20035;-61
2022/12/13 04:56:19;;;;;;;39.65;18.77;;;-6.70;79.00;;;;;;4982148;28;20031;-60
2022/12/13 04:58:45;;;;;;;41.00;18.70;;;-6.60;79.20;;;;;;4983779;28;20128;-58
2022/12/13 05:01:11;;;;;;;42.08;19.65;;;-6.70;79.30;;;;;;4986755;28;20045;-60
2022/12/13 05:03:37;;;;;;;40.33;18.45;;;-6.70;79.50;;;;;;4986529;28;20129;-59
2022/12/13 05:06:08;;;;;;;39.95;17.65;;;-6.70;79.60;;;;;;4985283;28;20220;-62
2022/12/13 05:08:36;;;;;;;37.53;17.73;;;-6.70;79.70;;;;;;4985814;28;20088;-58
2022/12/13 05:11:02;;;;;;;42.00;18.17;;;-6.70;79.80;;;;;;4983848;28;20045;-62
2022/12/13 05:13:27;;;;;;;38.13;17.77;;;-6.70;79.90;;;;;;4981945;28;20038;-61
2022/12/13 05:15:57;;;;;;;45.15;20.70;;;-6.70;80.70;;;;;;4983361;28;20077;-60
2022/12/13 05:18:23;;;;;;;46.42;21.33;;;-6.60;79.90;;;;;;4985259;28;20035;-58
2022/12/13 05:20:52;;;;;;;41.70;20.55;;;-6.60;79.90;;;;;;4984246;28;20406;-59
2022/12/13 05:23:19;;;;;;;36.00;18.30;;;-6.60;79.80;;;;;;4986886;28;20121;-60
2022/12/13 05:25:45;;;;;;;41.13;17.98;;;-6.60;79.70;;;;;;4983869;28;20027;-61
2022/12/13 05:28:11;;;;;;;42.25;18.48;;;-6.60;79.50;;;;;;4983314;28;20033;-60
2022/12/13 05:30:38;;;;;;;39.58;17.50;;;-6.50;79.50;;;;;;4982871;28;20065;-61
2022/12/13 05:33:03;;;;;;;37.60;18.55;;;-6.60;79.30;;;;;;4987111;28;20035;-60
2022/12/13 05:35:29;;;;;;;37.83;18.20;;;-6.50;79.30;;;;;;4986096;28;20031;-58
2022/12/13 05:37:55;;;;;;;38.90;18.17;;;-6.50;79.20;;;;;;4986182;28;20107;-59
2022/12/13 05:40:25;;;;;;;36.20;17.60;;;-6.50;79.10;;;;;;4984758;28;20030;-58
2022/12/13 05:42:51;;;;;;;38.92;18.48;;;-6.50;79.10;;;;;;4986108;28;20034;-59
2022/12/13 05:45:18;;;;;;;32.13;16.98;;;-6.50;79.10;;;;;;4986309;28;20491;-62
2022/12/13 05:47:44;;;;;;;36.10;17.63;;;-6.50;79.10;;;;;;4984795;28;20494;-60
2022/12/13 05:50:11;;;;;;;38.67;18.23;;;-6.50;79.10;;;;;;4985331;28;20046;-57
2022/12/13 05:52:36;;;;;;;35.97;17.85;;;-6.50;79.10;;;;;;4985546;28;20399;-60
2022/12/13 05:55:02;;;;;;;39.35;17.98;;;-6.50;79.00;;;;;;4986282;28;20038;-60
2022/12/13 05:57:28;;;;;;;37.70;18.27;;;-6.40;79.00;;;;;;4986860;28;20556;-59
2022/12/13 05:59:54;;;;;;;37.10;17.98;;;-6.40;79.00;;;;;;4986031;28;20114;-59
2022/12/13 06:02:20;;;;;;;37.22;17.60;;;-6.40;78.90;;;;;;4989470;28;20048;-60
2022/12/13 06:04:46;;;;;;;39.72;18.33;;;-6.40;78.80;;;;;;4988357;28;20502;-60
2022/12/13 06:07:12;;;;;;;37.83;18.48;;;-6.40;78.70;;;;;;4989312;28;20042;-59
2022/12/13 06:09:37;;;;;;;38.75;18.40;;;-6.40;78.70;;;;;;4990211;28;20035;-58
2022/12/13 06:12:03;;;;;;;36.55;17.83;;;-6.40;78.70;;;;;;4986027;28;20031;-59
2022/12/13 06:14:29;;;;;;;38.97;18.38;;;-6.40;78.60;;;;;;4988627;28;20478;-60
2022/12/13 06:16:54;;;;;;;35.00;17.65;;;-6.40;78.60;;;;;;4989637;28;20077;-59
2022/12/13 06:19:21;;;;;;;41.70;19.85;;;-6.40;78.60;;;;;;4990066;28;20038;-61
2022/12/13 06:21:46;;;;;;;36.50;18.10;;;-6.40;78.60;;;;;;4988700;28;20046;-60
2022/12/13 06:24:17;;;;;;;41.42;18.25;;;-6.40;78.60;;;;;;4988739;28;20484;-59
2022/12/13 06:26:43;;;;;;;38.92;18.90;;;-6.40;78.60;;;;;;4988409;28;20042;-60
2022/12/13 06:29:09;;;;;;;34.95;17.15;;;-6.40;78.70;;;;;;4989043;28;20062;-60
2022/12/13 06:31:35;;;;;;;36.85;17.83;;;-6.50;78.60;;;;;;4989313;28;20077;-59
2022/12/13 06:34:04;;;;;;;36.55;19.00;;;-6.40;78.60;;;;;;4986752;28;20034;-58
2022/12/13 06:36:29;;;;;;;43.40;18.67;;;-6.40;78.60;;;;;;4988344;28;20498;-60
2022/12/13 06:38:55;;;;;;;36.28;18.95;;;-6.40;78.50;;;;;;4988709;28;20041;-59
2022/12/13 06:41:21;;;;;;;33.88;17.48;;;-6.40;78.50;;;;;;4988929;28;20058;-61
2022/12/13 06:43:47;;;;;;;34.97;17.73;;;-6.40;78.50;;;;;;4989583;28;20034;-61
2022/12/13 06:46:14;;;;;;;36.50;17.65;;;-6.40;78.50;;;;;;4987660;28;20042;-60
2022/12/13 06:48:40;;;;;;;34.45;17.13;;;-6.40;78.50;;;;;;4989745;28;20046;-61
2022/12/13 06:51:07;;;;;;;35.75;16.90;;;-6.40;78.50;;;;;;4988453;28;20035;-61
2022/12/13 06:53:35;;;;;;;36.70;17.20;;;-6.50;78.40;;;;;;4988825;28;20045;-59
2022/12/13 06:56:09;;;;;;;36.88;17.15;;;-6.40;78.50;;;;;;4988597;28;20039;-60
2022/12/13 06:58:35;;;;;;;36.42;17.88;;;-6.40;78.50;;;;;;4988690;28;20030;-59
2022/12/13 07:01:10;;;;;;;36.92;18.90;;;-6.40;78.50;;;;;;4988095;28;20088;-60
2022/12/13 07:03:36;;;;;;;38.88;18.10;;;-6.40;78.60;;;;;;4988688;28;20533;-60
2022/12/13 07:06:13;;;;;;;37.30;18.60;;;-6.40;78.50;;;;;;4987043;28;20042;-59
2022/12/13 07:08:40;;;;;;;41.75;18.98;;;-6.40;78.40;;;;;;4989256;28;20044;-60
2022/12/13 07:11:06;;;;;;;39.03;17.98;;;-6.40;78.40;;;;;;4986092;28;20358;-60
2022/12/13 07:13:33;;;;;;;37.70;18.48;;;-6.40;78.50;;;;;;4988019;28;20042;-58
2022/12/13 07:15:59;;;;;;;37.47;18.92;;;-6.40;78.50;;;;;;4987384;28;20031;-61
2022/12/13 07:18:24;;;;;;;37.50;18.20;;;-6.40;78.50;;;;;;4988111;28;20030;-59
2022/12/13 07:20:50;;;;;;;33.50;18.17;;;-6.40;78.50;;;;;;4987294;28;20518;-60
2022/12/13 07:23:15;;;;;;;39.45;18.63;;;-6.40;78.70;;;;;;4988806;28;20035;-60
2022/12/13 07:25:41;;;;;;;37.47;18.83;;;-6.40;78.70;;;;;;4987790;28;20055;-60
2022/12/13 07:28:08;;;;;;;39.35;18.88;;;-6.40;78.80;;;;;;4987889;28;20036;-59
2022/12/13 07:30:36;;;;;;;36.15;18.20;;;-6.50;78.80;;;;;;4987747;28;20034;-59
2022/12/13 07:33:03;;;;;;;37.65;18.55;;;-6.50;78.80;;;;;;4985215;28;20034;-58
2022/12/13 07:35:29;;;;;;;34.20;17.88;;;-6.50;78.90;;;;;;4985358;28;20042;-60
2022/12/13 07:37:55;;;;;;;36.35;18.23;;;-6.40;79.20;;;;;;4989011;28;20034;-61
2022/12/13 07:40:21;;;;;;;40.20;19.05;;;-6.40;79.30;;;;;;4985806;28;20212;-60
2022/12/13 07:42:50;;;;;;;33.80;16.85;;;-6.40;79.30;;;;;;4987794;28;20061;-60
2022/12/13 07:45:16;;;;;;;35.08;18.10;;;-6.40;79.30;;;;;;4987020;28;20498;-60
2022/12/13 07:47:42;;;;;;;40.33;19.15;;;-6.40;79.30;;;;;;4988454;28;20038;-60
2022/12/13 07:50:07;;;;;;;39.75;18.40;;;-6.30;79.30;;;;;;4987687;28;20618;-60
2022/12/13 07:52:33;;;;;;;35.72;17.33;;;-6.30;79.30;;;;;;4986989;28;20038;-61
2022/12/13 07:54:59;;;;;;;35.88;18.02;;;-6.30;79.40;;;;;;4987410;28;20050;-60
2022/12/13 07:57:24;;;;;;;36.38;18.73;;;-6.30;79.30;;;;;;4987009;28;20498;-60
2022/12/13 07:59:50;;;;;;;42.88;19.38;;;-6.30;79.40;;;;;;4987273;28;20120;-60
2022/12/13 08:02:16;;;;;;;37.60;18.33;;;-6.20;79.30;;;;;;4987052;28;20049;-59
2022/12/13 08:04:42;;;;;;;38.90;18.33;;;-6.20;79.30;;;;;;4986395;28;20389;-61
2022/12/13 08:07:09;;;;;;;38.17;18.48;;;-6.20;79.30;;;;;;4987005;28;20362;-62
2022/12/13 08:09:34;;;;;;;38.45;18.58;;;-6.20;79.30;;;;;;4987199;28;20402;-60
2022/12/13 08:12:00;;;;;;;39.03;19.60;;;-6.20;79.30;;;;;;4977582;28;20042;-61
2022/12/13 08:14:26;;;;;;;38.85;18.42;;;-6.20;79.30;;;;;;4985289;28;20042;-62
2022/12/13 08:16:52;;;;;;;39.83;19.15;;;-6.20;79.50;;;;;;4987267;28;20121;-61
2022/12/13 08:19:18;;;;;;;42.63;18.75;;;-6.10;79.70;;;;;;4986664;28;20117;-60
2022/12/13 08:21:43;;;;;;;40.72;18.90;;;-6.10;79.70;;;;;;4986734;28;20038;-61
2022/12/13 08:24:09;;;;;;;40.33;19.50;;;-6.10;80.60;;;;;;4986524;28;20274;-61
2022/12/13 08:26:35;;;;;;;40.67;19.35;;;-6.10;79.90;;;;;;4985780;28;20035;-63
2022/12/13 08:29:00;;;;;;;45.72;20.00;;;-6.10;79.90;;;;;;4985918;28;20110;-60
2022/12/13 08:31:26;;;;;;;39.10;18.70;;;-6.00;80.00;;;;;;4986528;28;20117;-60
2022/12/13 08:33:52;;;;;;;41.17;18.92;;;-6.00;79.90;;;;;;4986146;28;20044;-61
2022/12/13 08:36:18;;;;;;;43.80;19.42;;;-5.90;80.00;;;;;;4985949;28;20490;-60
2022/12/13 08:38:44;;;;;;;42.42;18.85;;;-5.90;79.90;;;;;;4986343;28;20105;-60
2022/12/13 08:41:10;;;;;;;42.25;19.90;;;-5.90;79.90;;;;;;4986250;28;20285;-59
2022/12/13 08:43:36;;;;;;;42.30;19.48;;;-5.80;79.80;;;;;;4986962;28;20357;-60
2022/12/13 08:46:03;;;;;;;43.08;18.83;;;-5.80;79.70;;;;;;4986708;28;20030;-59
2022/12/13 08:48:32;;;;;;;42.30;19.08;;;-5.80;79.70;;;;;;4986284;28;20497;-60
2022/12/13 08:51:03;;;;;;;37.50;18.08;;;-5.80;79.80;;;;;;4985999;28;20093;-60
2022/12/13 08:53:29;;;;;;;41.90;18.98;;;-5.80;79.80;;;;;;4985887;28;20034;-60
2022/12/13 08:56:00;;;;;;;40.45;18.60;;;-5.80;79.90;;;;;;4986429;28;20041;-59
2022/12/13 08:58:26;;;;;;;38.00;19.40;;;-5.70;80.10;;;;;;4986827;28;20034;-61
2022/12/13 09:00:51;;;;;;;42.53;20.17;;;-5.70;80.20;;;;;;4986872;28;20285;-60
2022/12/13 09:03:17;;;;;;;42.08;19.48;;;-5.70;80.20;;;;;;4983320;28;20045;-60
2022/12/13 09:05:42;;;;;;;38.20;18.77;;;-5.60;80.30;;;;;;4987332;28;20022;-60
2022/12/13 09:08:08;;;;;;;40.53;17.60;;;-5.60;80.40;;;;;;4985998;28;20039;-58
2022/12/13 09:10:33;;;;;;;37.92;17.65;;;-5.50;80.40;;;;;;4983773;28;20035;-58
2022/12/13 09:13:02;;;;;;;41.13;18.33;;;-5.50;80.50;;;;;;4987264;28;20113;-59
2022/12/13 09:15:30;;;;;;;40.90;18.77;;;-5.40;80.60;;;;;;4982806;28;20038;-57
2022/12/13 09:17:55;;;;;;;39.05;18.67;;;-5.40;80.70;;;;;;4982665;28;20529;-60
2022/12/13 09:20:23;;;;;;;40.33;18.17;;;-5.30;80.70;;;;;;4985552;28;20034;-58
2022/12/13 09:22:49;;;;;;;35.97;17.17;;;-5.30;80.60;;;;;;4986795;28;20231;-59
2022/12/13 09:25:15;;;;;;;39.72;18.27;;;-5.20;80.60;;;;;;4986799;28;20125;-60
2022/12/13 09:27:40;;;;;;;33.13;17.30;;;-5.20;80.40;;;;;;4986770;28;20065;-61
2022/12/13 09:30:11;;;;;;;37.30;18.05;;;-5.10;80.30;;;;;;4987468;28;20034;-61
2022/12/13 09:32:37;;;;;;;38.58;18.55;;;-5.10;80.20;;;;;;4987330;28;20045;-59
2022/12/13 09:35:03;;;;;;;39.30;18.02;;;-5.00;80.40;;;;;;4986653;28;20675;-60
2022/12/13 09:37:29;;;;;;;34.25;18.13;;;-5.00;80.40;;;;;;4991233;28;20033;-61
2022/12/13 09:39:55;;;;;;;36.40;17.92;;;-4.90;80.40;;;;;;4989667;28;20510;-60
2022/12/13 09:42:24;;;;;;;36.80;18.40;;;-4.90;80.30;;;;;;4991966;28;20089;-60
2022/12/13 09:45:00;;;;;;;36.38;18.33;;;-4.80;80.30;;;;;;4989575;28;20395;-60
2022/12/13 09:47:37;;;;;;;39.10;18.70;;;-4.80;80.20;;;;;;4990472;28;20678;-59
2022/12/13 09:50:13;;;;;;;36.13;17.05;;;-4.80;80.20;;;;;;4990602;28;20034;-58
2022/12/13 09:52:42;;;;;;;33.05;17.65;;;-4.70;80.10;;;;;;4989944;28;20398;-60
2022/12/13 09:55:24;;;;;;;32.42;17.25;;;-4.70;80.20;;;;;;4990054;28;20510;-59
2022/12/13 09:57:51;;;;;;;34.60;17.50;;;-4.60;80.30;;;;;;4989190;28;20050;-60
2022/12/13 10:00:20;;;;;;;39.13;18.17;;;-4.60;80.20;;;;;;4989850;28;20552;-60
2022/12/13 10:02:57;;;;;;;32.25;17.42;;;-4.60;80.10;;;;;;4988946;28;20128;-60
2022/12/13 10:05:38;;;;;;;36.00;17.98;;;-4.50;80.10;;;;;;4990384;28;20038;-60
2022/12/13 10:08:12;;;;;;;31.75;17.20;;;-4.50;80.10;;;;;;4991534;28;20034;-61
2022/12/13 10:10:38;;;;;;;38.08;18.20;;;-4.40;80.10;;;;;;4988521;28;20157;-60
2022/12/13 10:13:18;;;;;;;36.00;17.63;;;-4.40;80.10;;;;;;4989260;28;20142;-59
2022/12/13 10:16:01;;;;;;;33.20;17.08;;;-4.40;80.00;;;;;;4989250;28;20026;-60
2022/12/13 10:18:36;;;;;;;36.67;18.42;;;-4.30;80.00;;;;;;4990385;28;20031;-60
2022/12/13 10:21:07;;;;;;;38.03;19.00;;;-4.30;80.00;;;;;;4980745;28;20034;-57
2022/12/13 10:23:33;;;;;;;37.13;18.38;;;-4.30;80.20;;;;;;4988824;28;20042;-59
2022/12/13 10:25:59;;;;;;;32.83;17.02;;;-4.20;80.00;;;;;;4989160;28;20092;-59
2022/12/13 10:28:34;;;;;;;32.67;17.17;;;-4.20;79.60;;;;;;4989718;28;20426;-60
2022/12/13 10:31:00;;;;;;;31.70;15.88;;;-4.20;79.70;;;;;;4989387;28;20042;-59
2022/12/13 10:33:28;;;;;;;34.10;16.48;;;-4.20;79.50;;;;;;4989491;28;20065;-57
2022/12/13 10:36:28;;;;;;;32.10;16.17;;;-4.20;79.70;;;;;;4989164;28;20039;-60
2022/12/13 10:38:55;;;;;;;35.80;17.00;;;-4.10;80.00;;;;;;4988173;28;20114;-59
2022/12/13 10:41:37;;;;;;;31.52;16.90;;;-4.10;80.00;;;;;;4990318;28;20045;-59
2022/12/13 10:44:06;;;;;;;30.75;15.93;;;-4.10;80.00;;;;;;4989850;28;20076;-58
2022/12/13 10:46:31;;;;;;;34.35;16.15;;;-4.00;80.00;;;;;;4988689;28;20026;-60
2022/12/13 10:48:58;;;;;;;29.63;15.35;;;-4.00;79.90;;;;;;4988920;28;20046;-58
2022/12/13 10:51:24;;;;;;;33.78;16.73;;;-3.90;79.80;;;;;;4989418;28;20042;-59
2022/12/13 10:53:56;;;;;;;34.58;16.77;;;-3.90;79.60;;;;;;4990024;28;20050;-59
2022/12/13 10:56:33;;;;;;;31.65;16.85;;;-3.90;79.50;;;;;;4988954;28;20026;-59
2022/12/13 10:59:25;;;;;;;30.30;15.68;;;-3.80;79.40;;;;;;4990254;28;20113;-60
2022/12/13 11:01:54;;;;;;;29.00;15.30;;;-3.80;79.30;;;;;;4990364;28;20042;-58
2022/12/13 11:04:26;;;;;;;30.27;16.02;;;-3.80;79.40;;;;;;4988789;28;20046;-59
2022/12/13 11:06:52;;;;;;;28.40;15.55;;;-3.80;79.50;;;;;;4989440;28;20506;-61
2022/12/13 11:09:25;;;;;;;30.83;15.20;;;-3.80;79.50;;;;;;4988802;28;20035;-60
2022/12/13 11:11:52;;;;;;;29.80;15.63;;;-3.70;79.40;;;;;;4987962;28;20035;-61
2022/12/13 11:14:20;;;;;;;28.58;15.48;;;-3.70;79.40;;;;;;4988838;28;20038;-60
2022/12/13 11:16:53;;;;;;;31.52;15.40;;;-3.70;79.30;;;;;;4988441;28;20545;-61
2022/12/13 11:19:22;;;;;;;30.33;15.30;;;-3.70;79.20;;;;;;4989276;28;20035;-60
2022/12/13 11:21:49;;;;;;;31.85;15.23;;;-3.70;79.20;;;;;;4988732;28;20041;-58
2022/12/13 11:24:41;;;;;;;27.60;14.65;;;-3.60;79.30;;;;;;4985775;28;20109;-59
2022/12/13 11:27:06;;;;;;;29.58;15.13;;;-3.60;79.50;;;;;;4983612;28;20038;-60
2022/12/13 11:29:42;;;;;;;29.00;14.57;;;-3.60;79.30;;;;;;4984744;28;20565;-59
2022/12/13 11:32:39;;;;;;;28.73;15.00;;;-3.60;79.30;;;;;;4988040;28;20080;-60
2022/12/13 11:35:21;;;;;;;32.47;15.15;;;-3.50;79.50;;;;;;4967679;28;20134;-59
2022/12/13 11:38:09;;;;;;;28.73;15.32;;;-3.50;79.50;;;;;;4989892;28;20036;-61
2022/12/13 11:40:43;;;;;;;30.55;15.68;;;-3.40;79.60;;;;;;4988050;28;20034;-61
2022/12/13 11:43:32;;;;;;;28.40;14.75;;;-3.40;79.50;;;;;;4988020;28;20459;-61
2022/12/13 11:46:01;;;;;;;27.85;14.32;;;-3.40;79.50;;;;;;4988817;28;20034;-60
2022/12/13 11:48:56;;;;;;;28.30;14.30;;;-3.30;79.60;;;;;;4987688;28;20030;-59
2022/12/13 11:51:28;;;;;;;26.75;14.77;;;-3.30;79.50;;;;;;4986858;28;20037;-60
2022/12/13 11:54:07;;;;;;;28.98;15.60;;;-3.20;79.50;;;;;;4988048;28;20049;-61
2022/12/13 11:56:38;;;;;;;29.35;15.68;;;-3.20;79.50;;;;;;4987844;28;20026;-61
2022/12/13 11:59:38;;;;;;;33.20;15.85;;;-3.00;79.70;;;;;;4988462;28;20035;-61
2022/12/13 12:02:22;;;;;;;26.98;14.60;;;-3.10;79.60;;;;;;4987630;28;20034;-61
2022/12/13 12:04:49;;;;;;;31.90;15.80;;;-3.00;79.70;;;;;;4987287;28;20042;-61
2022/12/13 12:07:19;;;;;;;33.55;14.77;;;-3.00;79.60;;;;;;4988805;28;20034;-61
2022/12/13 12:09:58;;;;;;;27.38;14.77;;;-2.90;79.50;;;;;;4987972;28;20034;-61
2022/12/13 12:12:30;;;;;;;31.00;15.00;;;-2.90;79.30;;;;;;4986185;28;20164;-61
2022/12/13 12:14:59;;;;;;;28.08;15.23;;;-2.90;80.30;;;;;;4987857;28;20046;-61
2022/12/13 12:17:25;;;;;;;26.00;14.65;;;-2.80;80.50;;;;;;4986918;28;20092;-60
2022/12/13 12:19:57;;;;;;;27.20;14.57;;;-2.80;79.70;;;;;;4988584;28;20514;-60
2022/12/13 12:22:54;;;;;;;27.38;14.38;;;-2.70;79.80;;;;;;4987793;28;20105;-60
2022/12/13 12:25:26;;;;;;;25.70;13.73;;;-2.70;79.90;;;;;;4953272;28;20035;-60
2022/12/13 12:28:16;;;;;;;26.95;14.55;;;-2.60;79.70;;;;;;4986358;28;20045;-61
2022/12/13 12:30:58;;;;;;;25.83;13.25;;;-2.50;79.50;;;;;;4987345;28;20038;-58
2022/12/13 12:33:36;;;;;;;26.05;14.13;;;-2.40;79.30;;;;;;4985956;28;20553;-59
2022/12/13 12:36:21;;;;;;;26.13;14.30;;;-2.40;79.30;;;;;;4988229;28;20116;-60
2022/12/13 12:39:08;;;;;;;33.45;15.23;;;-2.30;79.20;;;;;;4986949;28;20042;-58
2022/12/13 12:41:54;;;;;;;28.65;14.98;;;-2.30;79.00;;;;;;4987560;28;20073;-61
2022/12/13 12:44:19;;;;;;;32.65;14.85;;;-2.30;79.60;;;;;;4987087;28;20093;-59